This is the latest recevied weather packets stored in our database for station/object K0WXC-1. If no packets are shown the sender has not sent any weather packets the latest 1 day(s).
| Time | Temp. | Humidity | Pressure | Rain* | Wind** | Luminosity | Snow |
|---|---|---|---|---|---|---|---|
| 1778086409 | 12.22° C | 38% | 1004.9 hPa | 0 mm | 2.68 m/s, 292° | - | - |
| 1778086168 | 12.78° C | 36% | 1005.1 hPa | 0 mm | 0.45 m/s, 58° | - | - |
| 1778086108 | 12.78° C | 36% | 1005.1 hPa | 0 mm | 0.45 m/s, 58° | - | - |
| 1778085688 | 12.22° C | 38% | 1005.2 hPa | 0 mm | 2.24 m/s, 29° | - | - |
| 1778085388 | 12.78° C | 37% | 1005.1 hPa | 0 mm | 0.89 m/s, 59° | - | - |
| 1778085328 | 13.33° C | 40% | 1005 hPa | 0 mm | 0.45 m/s, 155° | - | - |
| 1778085268 | 13.33° C | 40% | 1005 hPa | 0 mm | 0.45 m/s, 155° | - | - |
| 1778084848 | 12.22° C | 42% | 1005 hPa | 0 mm | 1.79 m/s, 304° | - | - |
| 1778084548 | 12.78° C | 39% | 1005.1 hPa | 0 mm | 2.24 m/s, 3° | - | - |
| 1778084488 | 12.78° C | 39% | 1005.1 hPa | 0 mm | 2.24 m/s, 3° | - | - |
| 1778084248 | 12.22° C | 37% | 1004.8 hPa | 0 mm | 1.79 m/s, 246° | - | - |
| 1778083888 | 12.22° C | 40% | 1004.9 hPa | 0 mm | 2.24 m/s, 263° | - | - |
| 1778083588 | 11.67° C | 42% | 1004.9 hPa | 0 mm | 1.79 m/s, 309° | - | - |
| 1778083168 | 11.67° C | 46% | 1004.9 hPa | 0 mm | 0.89 m/s, 110° | - | - |
| 1778083048 | 11.67° C | 46% | 1004.9 hPa | 0 mm | 0.89 m/s, 110° | - | - |
| 1778082988 | 11.67° C | 46% | 1004.9 hPa | 0 mm | 0.89 m/s, 110° | - | - |
| 1778082928 | 11.11° C | 37% | 1004.7 hPa | 0 mm | 2.24 m/s, 237° | - | - |
| 1778082628 | 11.67° C | 39% | 1004.8 hPa | 0 mm | 3.58 m/s, 334° | - | - |
| 1778082328 | 11.67° C | 40% | 1004.7 hPa | 0 mm | 3.13 m/s, 271° | - | - |
| 1778082148 | 11.67° C | 40% | 1004.7 hPa | 0 mm | 3.13 m/s, 271° | - | - |
| 1778082088 | 11.67° C | 40% | 1004.7 hPa | 0 mm | 3.13 m/s, 271° | - | - |
| 1778081908 | 11.67° C | 41% | 1004.7 hPa | 0 mm | 1.34 m/s, 339° | - | - |
| 1778081728 | 11.11° C | 45% | 1004.6 hPa | 0 mm | 1.34 m/s, 268° | - | - |
| 1778081608 | 11.11° C | 45% | 1004.6 hPa | 0 mm | 1.34 m/s, 268° | - | - |
| 1778081488 | 11.11° C | 45% | 1004.6 hPa | 0 mm | 1.34 m/s, 268° | - | - |
* Rain latest hour (hover to see other rain measurements)
** Current wind speed in m/s (hover to see current wind gust speed)